sensor_id;sensor_type;location;lat;lon;timestamp;pressure;altitude;pressure_sealevel;temperature;humidity
71344;BME280;59146;43.850;25.948;2022-12-07T00:00:53;101303.69;;;5.83;95.89
71344;BME280;59146;43.850;25.948;2022-12-07T00:03:18;101265.91;;;5.76;94.50
71344;BME280;59146;43.850;25.948;2022-12-07T00:05:44;101279.75;;;5.75;94.00
71344;BME280;59146;43.850;25.948;2022-12-07T00:08:09;101285.50;;;5.86;95.18
71344;BME280;59146;43.850;25.948;2022-12-07T00:10:34;101295.22;;;6.08;93.17
71344;BME280;59146;43.850;25.948;2022-12-07T00:13:00;101296.38;;;5.98;93.06
71344;BME280;59146;43.850;25.948;2022-12-07T00:15:26;101300.00;;;5.93;93.41
71344;BME280;59146;43.850;25.948;2022-12-07T00:17:52;101318.69;;;6.04;94.24
71344;BME280;59146;43.850;25.948;2022-12-07T00:20:17;101318.44;;;6.13;93.92
71344;BME280;59146;43.850;25.948;2022-12-07T00:22:42;101325.16;;;6.20;93.04
71344;BME280;59146;43.850;25.948;2022-12-07T00:25:08;101311.25;;;5.92;93.69
71344;BME280;59146;43.850;25.948;2022-12-07T00:27:33;101243.13;;;5.56;93.83
71344;BME280;59146;43.850;25.948;2022-12-07T00:29:59;101257.41;;;5.71;93.59
71344;BME280;59146;43.850;25.948;2022-12-07T00:32:24;101263.31;;;5.76;93.36
71344;BME280;59146;43.850;25.948;2022-12-07T00:34:49;101305.34;;;5.87;93.61
71344;BME280;59146;43.850;25.948;2022-12-07T00:37:15;101327.69;;;5.91;94.40
71344;BME280;59146;43.850;25.948;2022-12-07T00:39:40;101331.53;;;6.08;94.24
71344;BME280;59146;43.850;25.948;2022-12-07T00:42:05;101288.81;;;5.91;93.88
71344;BME280;59146;43.850;25.948;2022-12-07T00:44:31;101325.53;;;6.06;93.70
71344;BME280;59146;43.850;25.948;2022-12-07T00:46:56;101343.44;;;6.14;93.57
71344;BME280;59146;43.850;25.948;2022-12-07T00:49:22;101321.47;;;5.98;93.82
71344;BME280;59146;43.850;25.948;2022-12-07T00:51:48;101163.91;;;5.18;94.30
71344;BME280;59146;43.850;25.948;2022-12-07T00:54:14;101320.59;;;5.99;94.11
71344;BME280;59146;43.850;25.948;2022-12-07T00:56:40;101263.69;;;5.62;93.84
71344;BME280;59146;43.850;25.948;2022-12-07T00:59:05;101323.88;;;6.04;94.00
71344;BME280;59146;43.850;25.948;2022-12-07T01:01:34;101335.03;;;6.07;93.66
71344;BME280;59146;43.850;25.948;2022-12-07T01:04:00;101261.22;;;5.57;94.52
71344;BME280;59146;43.850;25.948;2022-12-07T01:06:26;101318.38;;;5.85;94.91
71344;BME280;59146;43.850;25.948;2022-12-07T01:08:52;101301.78;;;5.91;94.36
71344;BME280;59146;43.850;25.948;2022-12-07T01:11:21;101238.00;;;5.54;94.54
71344;BME280;59146;43.850;25.948;2022-12-07T01:13:49;101266.22;;;5.63;94.50
71344;BME280;59146;43.850;25.948;2022-12-07T01:16:16;101277.97;;;5.77;94.45
71344;BME280;59146;43.850;25.948;2022-12-07T01:18:42;101284.72;;;5.82;94.33
71344;BME280;59146;43.850;25.948;2022-12-07T01:21:13;101293.91;;;5.94;94.34
71344;BME280;59146;43.850;25.948;2022-12-07T01:23:39;101291.13;;;6.00;94.28
71344;BME280;59146;43.850;25.948;2022-12-07T01:26:09;101233.81;;;5.50;94.24
71344;BME280;59146;43.850;25.948;2022-12-07T01:28:35;101267.41;;;5.83;93.82
71344;BME280;59146;43.850;25.948;2022-12-07T01:31:06;101265.72;;;5.82;93.64
71344;BME280;59146;43.850;25.948;2022-12-07T01:33:34;101273.09;;;5.97;93.86
71344;BME280;59146;43.850;25.948;2022-12-07T01:38:39;101266.09;;;5.70;94.30
71344;BME280;59146;43.850;25.948;2022-12-07T01:41:05;101219.00;;;5.54;94.91
71344;BME280;59146;43.850;25.948;2022-12-07T01:43:31;101236.03;;;5.62;94.80
71344;BME280;59146;43.850;25.948;2022-12-07T01:45:58;101278.50;;;5.89;94.81
71344;BME280;59146;43.850;25.948;2022-12-07T01:51:00;101281.69;;;5.99;94.06
71344;BME280;59146;43.850;25.948;2022-12-07T01:53:29;101279.53;;;6.13;94.16
71344;BME280;59146;43.850;25.948;2022-12-07T01:55:55;101254.50;;;6.10;93.14
71344;BME280;59146;43.850;25.948;2022-12-07T01:58:22;101244.38;;;6.03;92.39
71344;BME280;59146;43.850;25.948;2022-12-07T02:00:48;101240.91;;;5.73;92.88
71344;BME280;59146;43.850;25.948;2022-12-07T02:03:21;101243.81;;;5.62;93.52
71344;BME280;59146;43.850;25.948;2022-12-07T02:05:49;101282.81;;;5.89;93.45
71344;BME280;59146;43.850;25.948;2022-12-07T02:08:16;101227.81;;;5.48;94.15
71344;BME280;59146;43.850;25.948;2022-12-07T02:10:43;101288.84;;;5.89;94.28
71344;BME280;59146;43.850;25.948;2022-12-07T02:13:13;101310.38;;;5.93;94.32
71344;BME280;59146;43.850;25.948;2022-12-07T02:27:07;101281.19;;;5.86;95.53
71344;BME280;59146;43.850;25.948;2022-12-07T02:32:31;101245.53;;;5.62;96.04
71344;BME280;59146;43.850;25.948;2022-12-07T02:35:09;101232.59;;;5.62;96.23
71344;BME280;59146;43.850;25.948;2022-12-07T02:40:09;101271.84;;;5.79;96.11
71344;BME280;59146;43.850;25.948;2022-12-07T02:42:44;101222.94;;;5.36;96.24
71344;BME280;59146;43.850;25.948;2022-12-07T02:45:13;101244.69;;;5.61;96.30
71344;BME280;59146;43.850;25.948;2022-12-07T02:47:41;101235.66;;;5.45;96.76
71344;BME280;59146;43.850;25.948;2022-12-07T02:50:09;101250.06;;;5.55;97.02
71344;BME280;59146;43.850;25.948;2022-12-07T02:52:34;101285.03;;;5.72;97.35
71344;BME280;59146;43.850;25.948;2022-12-07T02:55:00;101224.50;;;5.43;97.20
71344;BME280;59146;43.850;25.948;2022-12-07T03:00:05;101208.78;;;5.19;97.80
71344;BME280;59146;43.850;25.948;2022-12-07T03:02:59;101275.47;;;5.74;98.10
71344;BME280;59146;43.850;25.948;2022-12-07T03:05:43;101277.25;;;5.72;97.67
71344;BME280;59146;43.850;25.948;2022-12-07T03:08:31;101250.28;;;5.48;97.78
71344;BME280;59146;43.850;25.948;2022-12-07T03:11:08;101250.84;;;5.57;97.73
71344;BME280;59146;43.850;25.948;2022-12-07T03:13:59;101262.03;;;5.59;97.54
71344;BME280;59146;43.850;25.948;2022-12-07T03:16:43;101266.69;;;5.47;98.12
71344;BME280;59146;43.850;25.948;2022-12-07T03:19:13;101271.59;;;5.57;98.27
71344;BME280;59146;43.850;25.948;2022-12-07T03:21:44;101232.34;;;5.40;98.78
71344;BME280;59146;43.850;25.948;2022-12-07T03:24:17;101258.69;;;5.56;98.78
71344;BME280;59146;43.850;25.948;2022-12-07T03:27:03;101161.03;;;4.98;98.92
71344;BME280;59146;43.850;25.948;2022-12-07T03:37:44;101215.34;;;5.30;98.91
71344;BME280;59146;43.850;25.948;2022-12-07T03:42:37;101261.66;;;5.42;98.91
71344;BME280;59146;43.850;25.948;2022-12-07T03:45:04;101178.13;;;5.04;98.81
71344;BME280;59146;43.850;25.948;2022-12-07T03:47:41;101268.47;;;5.46;98.47
71344;BME280;59146;43.850;25.948;2022-12-07T03:50:19;101250.47;;;5.40;98.59
71344;BME280;59146;43.850;25.948;2022-12-07T03:53:00;101174.78;;;5.00;98.90
71344;BME280;59146;43.850;25.948;2022-12-07T03:55:34;101214.84;;;5.18;98.73
71344;BME280;59146;43.850;25.948;2022-12-07T03:58:07;101204.66;;;5.12;98.22
71344;BME280;59146;43.850;25.948;2022-12-07T04:00:34;101247.94;;;5.39;98.43
71344;BME280;59146;43.850;25.948;2022-12-07T04:02:59;101177.25;;;5.03;98.56
71344;BME280;59146;43.850;25.948;2022-12-07T04:05:25;101201.19;;;5.13;97.14
71344;BME280;59146;43.850;25.948;2022-12-07T04:07:51;101218.38;;;5.15;97.21
71344;BME280;59146;43.850;25.948;2022-12-07T04:10:16;101189.03;;;5.15;96.96
71344;BME280;59146;43.850;25.948;2022-12-07T04:12:42;101170.06;;;5.14;96.90
71344;BME280;59146;43.850;25.948;2022-12-07T04:15:08;101255.06;;;5.61;96.34
71344;BME280;59146;43.850;25.948;2022-12-07T04:17:34;101262.00;;;5.61;96.65
71344;BME280;59146;43.850;25.948;2022-12-07T04:19:59;101199.13;;;5.24;96.58
71344;BME280;59146;43.850;25.948;2022-12-07T04:22:24;101182.59;;;5.28;95.60
71344;BME280;59146;43.850;25.948;2022-12-07T04:24:50;101210.84;;;5.37;95.70
71344;BME280;59146;43.850;25.948;2022-12-07T04:27:15;101221.22;;;5.37;96.05
71344;BME280;59146;43.850;25.948;2022-12-07T04:29:41;101185.97;;;5.31;95.52
71344;BME280;59146;43.850;25.948;2022-12-07T04:32:06;101242.69;;;5.71;94.65
71344;BME280;59146;43.850;25.948;2022-12-07T04:34:32;101159.00;;;5.08;95.23
71344;BME280;59146;43.850;25.948;2022-12-07T04:36:57;101195.06;;;5.46;95.31
71344;BME280;59146;43.850;25.948;2022-12-07T04:39:24;101248.69;;;5.73;95.27
71344;BME280;59146;43.850;25.948;2022-12-07T04:41:50;101237.81;;;5.60;95.13
71344;BME280;59146;43.850;25.948;2022-12-07T04:44:17;101085.28;;;4.59;95.31
71344;BME280;59146;43.850;25.948;2022-12-07T04:46:43;101160.63;;;5.12;95.55
71344;BME280;59146;43.850;25.948;2022-12-07T04:49:09;101190.34;;;5.29;95.11
71344;BME280;59146;43.850;25.948;2022-12-07T04:51:35;101247.13;;;5.68;94.54
71344;BME280;59146;43.850;25.948;2022-12-07T04:54:00;101223.03;;;5.64;94.03
71344;BME280;59146;43.850;25.948;2022-12-07T04:56:25;101263.06;;;5.83;93.89
71344;BME280;59146;43.850;25.948;2022-12-07T04:58:52;101229.00;;;5.66;93.62
71344;BME280;59146;43.850;25.948;2022-12-07T05:01:19;101201.56;;;5.30;94.53
71344;BME280;59146;43.850;25.948;2022-12-07T05:03:44;101191.41;;;5.22;94.66
71344;BME280;59146;43.850;25.948;2022-12-07T05:06:10;101216.78;;;5.42;94.80
71344;BME280;59146;43.850;25.948;2022-12-07T05:08:36;101195.72;;;5.22;94.60
71344;BME280;59146;43.850;25.948;2022-12-07T05:11:02;101199.47;;;5.12;95.62
71344;BME280;59146;43.850;25.948;2022-12-07T05:13:28;101204.56;;;5.15;95.55
71344;BME280;59146;43.850;25.948;2022-12-07T05:15:54;101229.22;;;5.29;95.71
71344;BME280;59146;43.850;25.948;2022-12-07T05:18:19;101231.41;;;5.43;95.21
71344;BME280;59146;43.850;25.948;2022-12-07T05:20:45;101261.22;;;5.57;95.27
71344;BME280;59146;43.850;25.948;2022-12-07T05:23:10;101219.84;;;5.24;95.34
71344;BME280;59146;43.850;25.948;2022-12-07T05:25:36;101202.69;;;5.21;95.20
71344;BME280;59146;43.850;25.948;2022-12-07T05:28:02;101188.53;;;5.02;94.94
71344;BME280;59146;43.850;25.948;2022-12-07T05:30:28;101278.88;;;5.76;94.38
71344;BME280;59146;43.850;25.948;2022-12-07T05:32:54;101222.06;;;5.37;94.87
71344;BME280;59146;43.850;25.948;2022-12-07T05:35:20;101188.63;;;5.30;94.76
71344;BME280;59146;43.850;25.948;2022-12-07T05:37:45;101255.72;;;5.70;94.01
71344;BME280;59146;43.850;25.948;2022-12-07T05:40:12;101240.50;;;5.57;93.83
71344;BME280;59146;43.850;25.948;2022-12-07T05:42:37;101185.97;;;5.31;94.01
71344;BME280;59146;43.850;25.948;2022-12-07T05:45:03;101259.88;;;5.75;93.45
71344;BME280;59146;43.850;25.948;2022-12-07T05:47:29;101239.78;;;5.52;93.76
71344;BME280;59146;43.850;25.948;2022-12-07T05:49:55;101223.25;;;5.56;93.57
71344;BME280;59146;43.850;25.948;2022-12-07T05:52:20;101226.66;;;5.58;93.81
71344;BME280;59146;43.850;25.948;2022-12-07T05:54:46;101261.31;;;5.85;93.43
71344;BME280;59146;43.850;25.948;2022-12-07T05:57:11;101271.91;;;5.78;93.77
71344;BME280;59146;43.850;25.948;2022-12-07T05:59:37;101226.91;;;5.49;94.46
71344;BME280;59146;43.850;25.948;2022-12-07T06:02:06;101226.84;;;5.52;94.71
71344;BME280;59146;43.850;25.948;2022-12-07T06:04:33;101186.66;;;5.38;94.01
71344;BME280;59146;43.850;25.948;2022-12-07T06:07:00;101209.69;;;5.48;94.07
71344;BME280;59146;43.850;25.948;2022-12-07T06:09:27;101185.97;;;5.31;93.79
71344;BME280;59146;43.850;25.948;2022-12-07T06:11:53;101235.31;;;5.57;93.73
71344;BME280;59146;43.850;25.948;2022-12-07T06:14:38;101211.53;;;5.43;93.79
71344;BME280;59146;43.850;25.948;2022-12-07T06:17:04;101195.13;;;5.44;93.32
71344;BME280;59146;43.850;25.948;2022-12-07T06:19:30;101208.22;;;5.38;93.78
71344;BME280;59146;43.850;25.948;2022-12-07T06:21:55;101207.16;;;5.45;93.62
71344;BME280;59146;43.850;25.948;2022-12-07T06:24:21;101240.16;;;5.70;93.41
71344;BME280;59146;43.850;25.948;2022-12-07T06:26:47;101167.97;;;5.27;92.00
71344;BME280;59146;43.850;25.948;2022-12-07T06:29:13;101195.81;;;5.49;91.88
71344;BME280;59146;43.850;25.948;2022-12-07T06:31:39;101210.34;;;5.55;92.29
71344;BME280;59146;43.850;25.948;2022-12-07T06:34:07;101207.25;;;5.42;92.33
71344;BME280;59146;43.850;25.948;2022-12-07T06:36:34;101239.69;;;5.55;92.70
71344;BME280;59146;43.850;25.948;2022-12-07T06:38:59;101254.22;;;5.61;92.91
71344;BME280;59146;43.850;25.948;2022-12-07T06:41:25;101211.72;;;5.37;91.87
71344;BME280;59146;43.850;25.948;2022-12-07T06:43:50;101285.56;;;5.84;91.02
71344;BME280;59146;43.850;25.948;2022-12-07T06:46:16;101242.63;;;5.43;91.55
71344;BME280;59146;43.850;25.948;2022-12-07T06:48:42;101213.38;;;5.38;90.67
71344;BME280;59146;43.850;25.948;2022-12-07T06:51:08;101120.19;;;4.77;90.78
71344;BME280;59146;43.850;25.948;2022-12-07T06:53:35;101218.72;;;5.34;90.80
71344;BME280;59146;43.850;25.948;2022-12-07T06:56:00;101238.50;;;5.36;91.25
71344;BME280;59146;43.850;25.948;2022-12-07T06:58:26;101276.53;;;5.67;91.13
71344;BME280;59146;43.850;25.948;2022-12-07T07:00:51;101222.31;;;5.30;90.84
71344;BME280;59146;43.850;25.948;2022-12-07T07:03:17;101222.41;;;5.25;91.23
71344;BME280;59146;43.850;25.948;2022-12-07T07:05:43;101225.47;;;5.39;90.92
71344;BME280;59146;43.850;25.948;2022-12-07T07:08:09;101249.34;;;5.50;91.24
71344;BME280;59146;43.850;25.948;2022-12-07T07:10:35;101200.84;;;5.25;90.59
71344;BME280;59146;43.850;25.948;2022-12-07T07:13:01;101197.00;;;5.07;90.72
71344;BME280;59146;43.850;25.948;2022-12-07T07:15:27;101242.63;;;5.43;90.94
71344;BME280;59146;43.850;25.948;2022-12-07T07:17:52;101264.72;;;5.56;90.61
71344;BME280;59146;43.850;25.948;2022-12-07T07:20:18;101293.94;;;5.61;90.94
71344;BME280;59146;43.850;25.948;2022-12-07T07:22:44;101218.84;;;5.29;90.83
71344;BME280;59146;43.850;25.948;2022-12-07T07:25:09;101240.28;;;5.65;90.29
71344;BME280;59146;43.850;25.948;2022-12-07T07:27:35;101287.31;;;5.82;90.29
71344;BME280;59146;43.850;25.948;2022-12-07T07:30:00;101131.94;;;4.89;89.92
71344;BME280;59146;43.850;25.948;2022-12-07T07:32:26;101197.84;;;5.38;89.46
71344;BME280;59146;43.850;25.948;2022-12-07T07:34:51;101275.94;;;5.88;89.95
71344;BME280;59146;43.850;25.948;2022-12-07T07:37:17;101210.75;;;5.71;88.52
71344;BME280;59146;43.850;25.948;2022-12-07T07:39:43;101244.47;;;6.00;88.18
71344;BME280;59146;43.850;25.948;2022-12-07T07:42:08;101221.50;;;5.88;87.85
71344;BME280;59146;43.850;25.948;2022-12-07T07:44:34;101249.47;;;6.06;88.24
71344;BME280;59146;43.850;25.948;2022-12-07T07:47:00;101211.34;;;5.80;87.81
71344;BME280;59146;43.850;25.948;2022-12-07T07:49:26;101258.81;;;6.11;87.86
71344;BME280;59146;43.850;25.948;2022-12-07T07:51:52;101178.09;;;5.65;87.13
71344;BME280;59146;43.850;25.948;2022-12-07T07:54:17;101164.53;;;5.55;87.31
71344;BME280;59146;43.850;25.948;2022-12-07T07:56:43;101194.31;;;5.70;86.89
71344;BME280;59146;43.850;25.948;2022-12-07T07:59:08;101250.06;;;6.15;86.84
71344;BME280;59146;43.850;25.948;2022-12-07T08:01:34;101278.25;;;6.26;86.45
71344;BME280;59146;43.850;25.948;2022-12-07T08:04:00;101238.16;;;6.08;85.70
71344;BME280;59146;43.850;25.948;2022-12-07T08:06:25;101186.97;;;5.56;86.44
71344;BME280;59146;43.850;25.948;2022-12-07T08:08:51;101273.41;;;6.14;87.03
71344;BME280;59146;43.850;25.948;2022-12-07T08:11:18;101266.63;;;6.10;87.30
71344;BME280;59146;43.850;25.948;2022-12-07T08:13:45;101255.94;;;5.91;87.37
71344;BME280;59146;43.850;25.948;2022-12-07T08:16:11;101192.69;;;5.68;86.87
71344;BME280;59146;43.850;25.948;2022-12-07T08:18:38;101216.41;;;5.54;87.37
71344;BME280;59146;43.850;25.948;2022-12-07T08:21:05;101279.41;;;5.87;88.67
71344;BME280;59146;43.850;25.948;2022-12-07T08:23:31;101239.50;;;5.61;89.67
71344;BME280;59146;43.850;25.948;2022-12-07T08:26:06;101249.56;;;5.74;89.01
71344;BME280;59146;43.850;25.948;2022-12-07T08:28:32;101217.78;;;5.67;88.28
71344;BME280;59146;43.850;25.948;2022-12-07T08:31:06;101164.44;;;5.29;88.23
71344;BME280;59146;43.850;25.948;2022-12-07T08:33:32;101219.44;;;5.68;88.19
71344;BME280;59146;43.850;25.948;2022-12-07T08:36:02;101172.41;;;5.52;87.87
71344;BME280;59146;43.850;25.948;2022-12-07T08:38:28;101183.44;;;5.30;88.41
71344;BME280;59146;43.850;25.948;2022-12-07T08:40:57;101217.97;;;5.59;88.82
71344;BME280;59146;43.850;25.948;2022-12-07T08:43:23;101239.50;;;5.61;89.43
71344;BME280;59146;43.850;25.948;2022-12-07T08:48:28;101227.66;;;5.53;89.54
71344;BME280;59146;43.850;25.948;2022-12-07T08:50:53;101252.84;;;5.79;89.73
71344;BME280;59146;43.850;25.948;2022-12-07T08:53:19;101261.88;;;5.96;88.80
71344;BME280;59146;43.850;25.948;2022-12-07T08:55:46;101243.31;;;5.79;88.94
71344;BME280;59146;43.850;25.948;2022-12-07T08:58:12;101241.84;;;5.71;88.60
71344;BME280;59146;43.850;25.948;2022-12-07T09:00:37;101190.88;;;5.40;89.10
71344;BME280;59146;43.850;25.948;2022-12-07T09:03:03;101195.66;;;5.83;87.93
71344;BME280;59146;43.850;25.948;2022-12-07T09:05:28;101182.50;;;5.91;87.30
71344;BME280;59146;43.850;25.948;2022-12-07T09:07:57;101150.97;;;5.47;88.42
71344;BME280;59146;43.850;25.948;2022-12-07T09:10:25;101148.22;;;5.23;89.94
71344;BME280;59146;43.850;25.948;2022-12-07T09:12:51;101190.53;;;5.82;89.63
71344;BME280;59146;43.850;25.948;2022-12-07T09:15:16;101212.75;;;6.19;88.82
71344;BME280;59146;43.850;25.948;2022-12-07T09:17:42;101211.81;;;6.20;87.77
71344;BME280;59146;43.850;25.948;2022-12-07T09:20:07;101208.75;;;6.08;88.11
71344;BME280;59146;43.850;25.948;2022-12-07T09:22:33;101197.03;;;6.24;87.60
71344;BME280;59146;43.850;25.948;2022-12-07T09:24:59;101212.69;;;6.21;87.50
71344;BME280;59146;43.850;25.948;2022-12-07T09:27:26;101141.69;;;5.68;87.83
71344;BME280;59146;43.850;25.948;2022-12-07T09:29:51;101220.75;;;6.12;87.66
71344;BME280;59146;43.850;25.948;2022-12-07T09:32:17;101207.16;;;6.04;87.61
71344;BME280;59146;43.850;25.948;2022-12-07T09:34:42;101203.03;;;5.98;87.68
71344;BME280;59146;43.850;25.948;2022-12-07T09:37:08;101185.88;;;5.94;87.57
71344;BME280;59146;43.850;25.948;2022-12-07T09:39:34;101164.56;;;5.83;87.28
71344;BME280;59146;43.850;25.948;2022-12-07T09:42:03;101179.03;;;5.92;87.12
71344;BME280;59146;43.850;25.948;2022-12-07T09:44:29;101220.38;;;6.24;86.96
71344;BME280;59146;43.850;25.948;2022-12-07T09:46:55;101153.69;;;6.00;86.99
71344;BME280;59146;43.850;25.948;2022-12-07T09:49:23;101145.53;;;6.12;86.39
71344;BME280;59146;43.850;25.948;2022-12-07T09:52:26;101170.28;;;6.48;84.99
71344;BME280;59146;43.850;25.948;2022-12-07T09:54:53;101138.84;;;6.05;85.91
71344;BME280;59146;43.850;25.948;2022-12-07T09:57:27;101197.81;;;6.52;86.41
71344;BME280;59146;43.850;25.948;2022-12-07T09:59:56;101171.66;;;6.58;86.18
71344;BME280;59146;43.850;25.948;2022-12-07T10:02:28;101196.31;;;6.96;84.31
71344;BME280;59146;43.850;25.948;2022-12-07T10:04:58;101091.97;;;6.11;85.03
71344;BME280;59146;43.850;25.948;2022-12-07T10:07:24;101133.94;;;6.48;85.35
71344;BME280;59146;43.850;25.948;2022-12-07T10:09:49;101102.50;;;6.57;82.82
71344;BME280;59146;43.850;25.948;2022-12-07T10:12:15;101098.44;;;6.73;81.91
71344;BME280;59146;43.850;25.948;2022-12-07T10:14:55;101179.69;;;7.01;83.12
71344;BME280;59146;43.850;25.948;2022-12-07T10:20:11;101123.31;;;6.80;82.87
71344;BME280;59146;43.850;25.948;2022-12-07T10:22:38;101168.59;;;6.96;82.17
71344;BME280;59146;43.850;25.948;2022-12-07T10:25:19;101174.59;;;6.98;82.51
71344;BME280;59146;43.850;25.948;2022-12-07T10:27:57;101142.00;;;6.40;83.68
71344;BME280;59146;43.850;25.948;2022-12-07T10:30:23;101091.91;;;6.38;83.06
71344;BME280;59146;43.850;25.948;2022-12-07T10:32:48;101159.31;;;6.65;84.29
71344;BME280;59146;43.850;25.948;2022-12-07T10:35:28;101123.34;;;6.54;84.48
71344;BME280;59146;43.850;25.948;2022-12-07T10:37:57;101163.84;;;6.84;83.63
71344;BME280;59146;43.850;25.948;2022-12-07T10:40:34;101122.91;;;6.41;84.83
71344;BME280;59146;43.850;25.948;2022-12-07T10:45:30;101149.00;;;6.63;84.93
71344;BME280;59146;43.850;25.948;2022-12-07T10:48:19;101151.59;;;6.88;84.10
71344;BME280;59146;43.850;25.948;2022-12-07T10:51:02;101155.56;;;6.73;85.14
71344;BME280;59146;43.850;25.948;2022-12-07T11:01:35;101152.16;;;6.96;84.06
71344;BME280;59146;43.850;25.948;2022-12-07T11:12:14;101139.50;;;6.62;83.53
71344;BME280;59146;43.850;25.948;2022-12-07T11:17:18;101147.66;;;7.01;83.53
71344;BME280;59146;43.850;25.948;2022-12-07T11:23:03;101149.72;;;7.16;82.93
71344;BME280;59146;43.850;25.948;2022-12-07T11:28:28;101141.88;;;7.17;83.35
71344;BME280;59146;43.850;25.948;2022-12-07T11:31:18;101129.66;;;7.19;82.74
71344;BME280;59146;43.850;25.948;2022-12-07T11:36:54;101098.94;;;7.07;82.38
71344;BME280;59146;43.850;25.948;2022-12-07T11:41:51;101112.16;;;7.25;81.21
71344;BME280;59146;43.850;25.948;2022-12-07T11:49:36;101115.31;;;7.56;80.27
71344;BME280;59146;43.850;25.948;2022-12-07T11:52:04;100977.84;;;6.59;80.21
71344;BME280;59146;43.850;25.948;2022-12-07T11:54:40;101106.59;;;7.34;81.31
71344;BME280;59146;43.850;25.948;2022-12-07T11:57:18;101034.16;;;7.03;81.23
71344;BME280;59146;43.850;25.948;2022-12-07T11:59:49;101068.72;;;7.28;80.41
71344;BME280;59146;43.850;25.948;2022-12-07T12:02:28;101035.97;;;7.01;81.24
71344;BME280;59146;43.850;25.948;2022-12-07T12:05:15;101081.81;;;7.02;82.75
71344;BME280;59146;43.850;25.948;2022-12-07T12:07:43;101085.25;;;7.02;82.25
71344;BME280;59146;43.850;25.948;2022-12-07T12:19:30;100948.78;;;6.26;82.63
71344;BME280;59146;43.850;25.948;2022-12-07T12:22:12;101086.75;;;7.09;83.23
71344;BME280;59146;43.850;25.948;2022-12-07T12:24:40;101059.75;;;6.90;83.12
71344;BME280;59146;43.850;25.948;2022-12-07T12:27:30;101058.66;;;6.96;83.29
71344;BME280;59146;43.850;25.948;2022-12-07T12:30:23;101011.75;;;7.00;81.08
71344;BME280;59146;43.850;25.948;2022-12-07T12:32:50;100960.00;;;6.73;80.66
71344;BME280;59146;43.850;25.948;2022-12-07T12:35:34;101025.59;;;7.01;81.00
71344;BME280;59146;43.850;25.948;2022-12-07T12:40:49;101010.00;;;6.78;82.07
71344;BME280;59146;43.850;25.948;2022-12-07T12:43:50;101055.06;;;7.00;81.97
71344;BME280;59146;43.850;25.948;2022-12-07T12:49:13;100980.91;;;6.70;82.00
71344;BME280;59146;43.850;25.948;2022-12-07T12:51:41;101059.06;;;6.85;83.23
71344;BME280;59146;43.850;25.948;2022-12-07T12:54:28;100997.66;;;6.61;83.61
71344;BME280;59146;43.850;25.948;2022-12-07T13:10:42;101060.63;;;6.66;84.07
71344;BME280;59146;43.850;25.948;2022-12-07T13:23:23;100941.81;;;6.26;84.44
71344;BME280;59146;43.850;25.948;2022-12-07T13:28:40;100995.41;;;6.75;83.14
71344;BME280;59146;43.850;25.948;2022-12-07T13:33:50;100970.13;;;6.57;82.98
71344;BME280;59146;43.850;25.948;2022-12-07T13:36:23;100963.22;;;6.33;83.18
71344;BME280;59146;43.850;25.948;2022-12-07T13:41:19;101016.09;;;6.77;83.12
71344;BME280;59146;43.850;25.948;2022-12-07T13:46:15;101026.09;;;6.64;84.65
71344;BME280;59146;43.850;25.948;2022-12-07T13:48:49;101021.41;;;6.74;84.46
71344;BME280;59146;43.850;25.948;2022-12-07T13:51:24;100971.91;;;6.32;84.94
71344;BME280;59146;43.850;25.948;2022-12-07T13:54:16;100995.06;;;6.61;84.53
71344;BME280;59146;43.850;25.948;2022-12-07T13:56:41;100969.97;;;6.37;84.91
71344;BME280;59146;43.850;25.948;2022-12-07T13:59:16;100983.94;;;6.58;84.78
71344;BME280;59146;43.850;25.948;2022-12-07T14:01:44;100947.63;;;6.33;84.54
71344;BME280;59146;43.850;25.948;2022-12-07T14:04:18;101028.25;;;6.99;83.27
71344;BME280;59146;43.850;25.948;2022-12-07T14:06:51;100970.53;;;6.68;83.09
71344;BME280;59146;43.850;25.948;2022-12-07T14:09:18;101026.31;;;7.04;83.25
71344;BME280;59146;43.850;25.948;2022-12-07T14:11:45;101015.47;;;6.93;83.14
71344;BME280;59146;43.850;25.948;2022-12-07T14:14:14;100949.63;;;6.50;83.91
71344;BME280;59146;43.850;25.948;2022-12-07T14:16:41;100957.38;;;6.51;84.01
71344;BME280;59146;43.850;25.948;2022-12-07T14:19:46;101005.84;;;6.74;84.32
71344;BME280;59146;43.850;25.948;2022-12-07T14:22:36;101020.78;;;6.90;84.21
71344;BME280;59146;43.850;25.948;2022-12-07T14:25:14;101030.88;;;6.75;84.50
71344;BME280;59146;43.850;25.948;2022-12-07T14:27:57;100958.03;;;6.33;84.43
71344;BME280;59146;43.850;25.948;2022-12-07T14:30:26;100915.84;;;6.03;85.04
71344;BME280;59146;43.850;25.948;2022-12-07T14:33:00;100930.63;;;6.26;85.52
71344;BME280;59146;43.850;25.948;2022-12-07T14:35:26;101004.19;;;6.71;84.37
71344;BME280;59146;43.850;25.948;2022-12-07T14:37:52;101026.47;;;6.77;84.80
71344;BME280;59146;43.850;25.948;2022-12-07T14:40:26;100956.69;;;6.46;84.93
71344;BME280;59146;43.850;25.948;2022-12-07T14:43:12;100936.38;;;6.57;83.42
71344;BME280;59146;43.850;25.948;2022-12-07T14:45:39;101013.25;;;6.84;83.89
71344;BME280;59146;43.850;25.948;2022-12-07T14:48:06;100971.00;;;6.56;84.33
71344;BME280;59146;43.850;25.948;2022-12-07T14:50:36;100944.16;;;6.34;84.53
71344;BME280;59146;43.850;25.948;2022-12-07T14:53:09;100965.41;;;6.43;85.15
71344;BME280;59146;43.850;25.948;2022-12-07T14:55:36;100949.44;;;6.31;85.36
71344;BME280;59146;43.850;25.948;2022-12-07T14:58:01;100883.53;;;5.89;86.04
71344;BME280;59146;43.850;25.948;2022-12-07T15:00:28;101011.66;;;6.57;85.89
71344;BME280;59146;43.850;25.948;2022-12-07T15:02:53;101001.13;;;6.60;86.04
71344;BME280;59146;43.850;25.948;2022-12-07T15:05:19;100887.75;;;5.93;85.88
71344;BME280;59146;43.850;25.948;2022-12-07T15:07:58;100993.34;;;6.60;86.05